Time;durP1;ratioP1;P1;durP2;ratioP2;P2;SDS_P1;SDS_P2;PMS_P1;PMS_P2;Temp;Humidity;BMP_temperature;BMP_pressure;BME280_temperature;BME280_humidity;BME280_pressure;Samples;Min_cycle;Max_cycle;Signal;HPM_P1;HPM_P2
2021/10/22 00:00:38;;;;;;;;;10.00;10.00;;;;;12.53;57.23;101423.06;2082132;28;45590;-51
2021/10/22 00:01:39;;;;;;;;;11.75;10.75;;;;;12.53;57.36;101427.53;2082291;28;48082;-48
2021/10/22 00:02:39;;;;;;;;;11.25;11.25;;;;;12.53;57.24;101424.84;2091461;28;47504;-49
2021/10/22 00:03:40;;;;;;;;;12.75;11.25;;;;;12.52;57.53;101431.97;2091089;28;47008;-48
2021/10/22 00:04:41;;;;;;;;;13.00;11.25;;;;;12.52;57.24;101431.97;2091396;28;47976;-47
2021/10/22 00:05:41;;;;;;;;;12.50;11.25;;;;;12.51;57.12;101432.88;2091088;28;48353;-48
2021/10/22 00:06:42;;;;;;;;;9.00;9.00;;;;;12.51;57.05;101435.53;2082407;28;47446;-47
2021/10/22 00:07:42;;;;;;;;;10.00;9.50;;;;;12.50;57.13;101435.56;2082231;28;48309;-51
2021/10/22 00:08:43;;;;;;;;;12.25;11.25;;;;;12.49;56.83;101433.81;2089203;28;48330;-52
2021/10/22 00:09:44;;;;;;;;;10.25;10.25;;;;;12.46;57.16;101440.09;2082357;28;48137;-51
2021/10/22 00:10:44;;;;;;;;;8.60;8.40;;;;;12.45;56.99;101437.41;2082413;28;47308;-51
2021/10/22 00:11:45;;;;;;;;;10.25;10.25;;;;;12.44;57.11;101438.31;2091165;28;47673;-50
2021/10/22 00:12:45;;;;;;;;;10.00;10.00;;;;;12.45;57.32;101440.09;2091287;28;48036;-50
2021/10/22 00:13:46;;;;;;;;;9.25;9.25;;;;;12.42;57.43;101441.03;2091209;28;48088;-52
2021/10/22 00:14:46;;;;;;;;;11.50;10.00;;;;;12.42;57.84;101442.81;2091368;28;47228;-48
2021/10/22 00:15:47;;;;;;;;;16.50;13.00;;;;;12.42;57.46;101440.16;2091219;28;48329;-52
2021/10/22 00:16:48;;;;;;;;;12.80;11.60;;;;;12.41;57.50;101441.94;2091278;28;48321;-49
2021/10/22 00:17:49;;;;;;;;;11.75;10.75;;;;;12.40;57.42;101436.63;2087304;28;47080;-51
2021/10/22 00:18:49;;;;;;;;;10.25;10.25;;;;;12.40;57.49;101437.50;2089730;28;48117;-47
2021/10/22 00:19:50;;;;;;;;;12.00;10.75;;;;;12.39;57.54;101438.41;2091280;28;47170;-50
2021/10/22 00:20:50;;;;;;;;;11.75;9.75;;;;;12.39;57.59;101438.41;2091290;28;48472;-50
2021/10/22 00:21:51;;;;;;;;;10.25;10.25;;;;;12.38;57.63;101437.53;2091027;28;45113;-52
2021/10/22 00:22:51;;;;;;;;;12.00;12.00;;;;;12.37;57.48;101437.56;2083195;28;47120;-50
2021/10/22 00:23:52;;;;;;;;;10.00;10.00;;;;;12.35;57.52;101437.59;2089835;28;46307;-49
2021/10/22 00:24:53;;;;;;;;;9.00;9.00;;;;;12.34;57.46;101441.19;2082229;28;47277;-47
2021/10/22 00:25:53;;;;;;;;;11.00;11.00;;;;;12.33;57.58;101434.09;2073978;28;48104;-47
2021/10/22 00:26:54;;;;;;;;;10.50;10.50;;;;;12.32;57.52;101443.00;2082212;28;47994;-48
2021/10/22 00:27:54;;;;;;;;;11.75;11.25;;;;;12.32;57.84;101440.31;2091227;28;48242;-52
2021/10/22 00:28:55;;;;;;;;;10.00;9.00;;;;;12.31;57.51;101435.88;2075584;28;47273;-48
2021/10/22 00:29:55;;;;;;;;;8.75;8.25;;;;;12.31;57.49;101442.97;2077287;28;45142;-48
2021/10/22 00:30:56;;;;;;;;;13.00;11.25;;;;;12.30;57.45;101446.56;2090440;28;47619;-51
2021/10/22 00:31:57;;;;;;;;;11.00;11.00;;;;;12.29;57.62;101445.69;2092236;28;46313;-52
2021/10/22 00:32:57;;;;;;;;;10.75;10.50;;;;;12.27;57.67;101442.16;2092611;28;47057;-48
2021/10/22 00:33:58;;;;;;;;;14.00;12.75;;;;;12.27;57.65;101438.63;2092683;28;47093;-47
2021/10/22 00:34:58;;;;;;;;;12.50;12.50;;;;;12.26;57.77;101436.88;2095025;28;46992;-47
2021/10/22 00:35:59;;;;;;;;;13.25;12.00;;;;;12.24;57.83;101442.22;2092328;28;48136;-51
2021/10/22 00:37:01;;;;;;;;;12.40;11.40;;;;;12.23;57.60;101439.59;2092592;28;46490;-50
2021/10/22 00:38:01;;;;;;;;;0.00;0.00;;;;;12.22;57.75;101438.72;2092545;28;47437;-47
2021/10/22 00:39:03;;;;;;;;;13.50;13.00;;;;;12.22;57.79;101435.19;2092681;28;47439;-51
2021/10/22 00:40:04;;;;;;;;;10.60;10.00;;;;;12.21;57.76;101442.28;2083573;28;47245;-48
2021/10/22 00:41:05;;;;;;;;;13.40;13.40;;;;;12.22;58.00;101445.81;2083758;28;47496;-50
2021/10/22 00:42:07;;;;;;;;;11.60;11.60;;;;;12.21;57.76;101444.06;2083766;28;47182;-51
2021/10/22 00:43:08;;;;;;;;;12.20;12.20;;;;;12.21;57.95;101438.75;2083643;28;47268;-47
2021/10/22 00:44:09;;;;;;;;;13.25;12.75;;;;;12.22;57.81;101438.72;2092020;28;47155;-49
2021/10/22 00:45:10;;;;;;;;;11.60;10.00;;;;;12.22;58.07;101441.38;2092483;28;46336;-49
2021/10/22 00:46:10;;;;;;;;;16.50;15.00;;;;;12.23;57.86;101436.94;2083552;28;47087;-51
2021/10/22 00:47:11;;;;;;;;;16.00;13.25;;;;;12.22;58.01;101441.38;2082725;28;47957;-48
2021/10/22 00:48:11;;;;;;;;;11.00;11.00;;;;;12.22;58.13;101445.81;2083621;28;47112;-48
2021/10/22 00:49:13;;;;;;;;;12.00;12.00;;;;;12.22;58.06;101433.41;2083595;28;47168;-50
2021/10/22 00:50:13;;;;;;;;;13.60;13.40;;;;;12.23;58.21;101444.91;2089183;28;48340;-51
2021/10/22 00:51:16;;;;;;;;;10.75;10.25;;;;;12.23;58.26;101436.94;2092325;28;47226;-52
2021/10/22 00:52:22;;;;;;;;;10.80;10.80;;;;;12.23;57.99;101439.59;2085077;28;48457;-48
2021/10/22 00:53:24;;;;;;;;;14.80;14.00;;;;;12.21;58.25;101442.28;2092295;28;48355;-50
2021/10/22 00:54:25;;;;;;;;;11.80;11.80;;;;;12.20;58.00;101437.88;2092462;28;47973;-51
2021/10/22 00:55:29;;;;;;;;;13.50;13.50;;;;;12.20;58.06;101437.88;2096657;28;47943;-48
2021/10/22 00:56:29;;;;;;;;;13.40;13.40;;;;;12.20;58.20;101442.31;2092376;28;48364;-51
2021/10/22 00:57:30;;;;;;;;;11.50;11.50;;;;;12.20;57.97;101442.31;2092312;28;47557;-49
2021/10/22 00:58:31;;;;;;;;;15.00;14.50;;;;;12.19;58.17;101435.22;2092676;28;45644;-47
2021/10/22 00:59:32;;;;;;;;;16.00;16.00;;;;;12.19;57.98;101438.75;2092305;28;48289;-51
2021/10/22 01:00:33;;;;;;;;;14.20;13.20;;;;;12.19;58.12;101440.53;2092399;28;48268;-51
2021/10/22 01:01:39;;;;;;;;;18.75;15.50;;;;;12.20;57.94;101439.66;2083489;28;48266;-50
2021/10/22 01:02:40;;;;;;;;;17.60;16.20;;;;;12.19;57.82;101440.53;2084047;28;46597;-47
2021/10/22 01:03:40;;;;;;;;;14.20;14.20;;;;;12.18;58.09;101444.09;2092416;28;45336;-46
2021/10/22 01:04:42;;;;;;;;;13.25;13.25;;;;;12.17;58.10;101437.91;2092323;28;47523;-49
2021/10/22 01:05:44;;;;;;;;;13.60;12.40;;;;;12.18;58.04;101447.63;2092453;28;47245;-46
2021/10/22 01:06:45;;;;;;;;;14.00;12.00;;;;;12.18;58.22;101438.78;2083367;28;48281;-51
2021/10/22 01:07:45;;;;;;;;;12.50;12.50;;;;;12.18;58.25;101439.66;2083309;28;47009;-49
2021/10/22 01:08:47;;;;;;;;;13.25;13.25;;;;;12.18;58.08;101444.97;2092497;28;47032;-49
2021/10/22 01:09:47;;;;;;;;;11.40;11.40;;;;;12.18;58.11;101449.41;2092252;28;45191;-49
2021/10/22 01:10:48;;;;;;;;;11.50;9.75;;;;;12.17;58.09;101450.31;2083531;28;45724;-47
2021/10/22 01:11:49;;;;;;;;;11.75;11.75;;;;;12.17;57.95;101445.00;2083363;28;47425;-48
2021/10/22 01:12:50;;;;;;;;;12.00;10.75;;;;;12.17;57.81;101445.00;2091937;28;47185;-48
2021/10/22 01:13:50;;;;;;;;;11.75;11.75;;;;;12.16;58.11;101448.56;2092249;28;46472;-50
2021/10/22 01:14:52;;;;;;;;;14.25;13.25;;;;;12.18;57.91;101449.41;2092394;28;47985;-52
2021/10/22 01:15:52;;;;;;;;;12.00;12.00;;;;;12.17;58.10;101447.66;2092321;28;47233;-51
2021/10/22 01:16:52;;;;;;;;;13.25;13.25;;;;;12.16;58.20;101449.44;2092372;28;47412;-49
2021/10/22 01:17:53;;;;;;;;;14.75;12.50;;;;;12.17;58.34;101455.66;2087658;28;46960;-52
2021/10/22 01:18:54;;;;;;;;;12.00;12.00;;;;;12.16;58.20;101448.56;2082407;28;46723;-49
2021/10/22 01:19:54;;;;;;;;;15.00;12.00;;;;;12.16;58.37;101451.22;2083330;28;47392;-48
2021/10/22 01:20:57;;;;;;;;;12.00;12.00;;;;;12.15;58.22;101455.69;2092293;28;48022;-49
2021/10/22 01:21:58;;;;;;;;;12.00;12.00;;;;;12.15;58.41;101457.47;2091544;28;47430;-49
2021/10/22 01:22:58;;;;;;;;;16.50;15.50;;;;;12.14;58.17;101453.03;2075935;28;46864;-51
2021/10/22 01:23:59;;;;;;;;;12.25;12.25;;;;;12.15;58.10;101457.47;2074968;28;47292;-49
2021/10/22 01:24:59;;;;;;;;;15.75;13.75;;;;;12.15;58.15;101457.47;2083485;28;46414;-47
2021/10/22 01:26:00;;;;;;;;;11.00;10.25;;;;;12.14;58.04;101450.38;2083893;28;47371;-49
2021/10/22 01:27:01;;;;;;;;;13.50;13.50;;;;;12.14;58.06;101453.03;2091721;28;48329;-51
2021/10/22 01:28:03;;;;;;;;;13.75;13.50;;;;;12.14;58.46;101453.03;2092006;28;47615;-47
2021/10/22 01:29:03;;;;;;;;;11.80;10.20;;;;;12.14;58.25;101458.38;2083626;28;47281;-47
2021/10/22 01:30:05;;;;;;;;;12.00;11.00;;;;;12.15;58.46;101457.47;2084397;28;47493;-50
2021/10/22 01:31:06;;;;;;;;;13.80;12.80;;;;;12.14;58.31;101451.25;2085299;28;47473;-50
2021/10/22 01:32:06;;;;;;;;;13.75;13.75;;;;;12.13;58.21;101448.63;2099462;28;47453;-48
2021/10/22 01:33:08;;;;;;;;;16.25;15.50;;;;;12.13;58.14;101456.63;2095595;28;47493;-51
2021/10/22 01:34:09;;;;;;;;;13.00;13.00;;;;;12.13;58.13;101452.16;2092337;28;47154;-50
2021/10/22 01:35:10;;;;;;;;;14.80;13.80;;;;;12.13;58.23;101460.16;2094137;28;47278;-49
2021/10/22 01:36:11;;;;;;;;;16.20;13.00;;;;;12.13;58.30;101460.16;2092050;28;47228;-50
2021/10/22 01:37:11;;;;;;;;;15.50;13.50;;;;;12.14;58.19;101461.03;2092202;28;48285;-50
2021/10/22 01:38:15;;;;;;;;;14.50;14.50;;;;;12.14;58.22;101461.91;2091950;28;48223;-46
2021/10/22 01:39:15;;;;;;;;;15.00;13.80;;;;;12.13;58.24;101452.16;2092092;28;47169;-49
2021/10/22 01:40:16;;;;;;;;;11.00;11.00;;;;;12.14;58.40;101453.03;2091518;28;48479;-50
2021/10/22 01:41:17;;;;;;;;;14.00;12.25;;;;;12.14;58.28;101456.59;2092127;28;46811;-51
2021/10/22 01:42:18;;;;;;;;;14.60;12.20;;;;;12.14;58.40;101456.59;2092180;28;47299;-52
2021/10/22 01:43:20;;;;;;;;;14.20;14.20;;;;;12.15;58.46;101460.13;2091914;28;48076;-52
2021/10/22 01:44:23;;;;;;;;;16.00;16.00;;;;;12.13;58.28;101460.16;2092236;28;46501;-50
2021/10/22 01:45:24;;;;;;;;;12.00;11.80;;;;;12.13;58.42;101459.28;2092277;28;47375;-50
2021/10/22 01:46:24;;;;;;;;;12.75;11.75;;;;;12.12;58.50;101461.06;2089499;28;47089;-51
2021/10/22 01:47:25;;;;;;;;;14.00;14.00;;;;;12.12;58.38;101461.06;2087058;28;47223;-52
2021/10/22 01:48:25;;;;;;;;;12.00;11.00;;;;;12.13;58.49;101459.28;2092201;28;48155;-49
2021/10/22 01:49:25;;;;;;;;;13.00;13.00;;;;;12.12;58.55;101455.75;2091980;28;48117;-52
2021/10/22 01:50:26;;;;;;;;;13.75;13.50;;;;;12.13;58.62;101457.50;2092155;28;47362;-49
2021/10/22 01:51:26;;;;;;;;;12.00;12.00;;;;;12.12;58.33;101461.06;2082926;28;48050;-49
2021/10/22 01:52:27;;;;;;;;;15.50;14.25;;;;;12.12;58.26;101457.53;2083112;28;47112;-50
2021/10/22 01:53:27;;;;;;;;;12.00;11.75;;;;;12.12;58.35;101465.50;2083040;28;48037;-48
2021/10/22 01:54:28;;;;;;;;;12.75;12.00;;;;;12.12;58.24;101463.72;2083202;28;47223;-51
2021/10/22 01:55:28;;;;;;;;;13.75;13.75;;;;;12.14;58.49;101466.34;2091707;28;45278;-52
2021/10/22 01:56:29;;;;;;;;;9.50;9.50;;;;;12.13;58.38;101472.59;2092290;28;47618;-48
2021/10/22 01:57:29;;;;;;;;;11.00;10.25;;;;;12.13;58.57;101465.47;2082936;28;47555;-52
2021/10/22 01:58:30;;;;;;;;;14.00;13.25;;;;;12.13;58.55;101465.47;2083323;28;47095;-48
2021/10/22 01:59:31;;;;;;;;;13.00;12.25;;;;;12.13;58.58;101468.13;2083037;28;47721;-50
2021/10/22 02:00:31;;;;;;;;;11.50;11.50;;;;;12.13;58.52;101461.94;2083287;28;47402;-50
2021/10/22 02:01:32;;;;;;;;;12.00;10.00;;;;;12.12;58.69;101457.53;2092031;28;47191;-49
2021/10/22 02:02:32;;;;;;;;;13.75;12.75;;;;;12.13;58.60;101461.94;2083246;28;47166;-50
2021/10/22 02:03:33;;;;;;;;;12.75;12.00;;;;;12.12;58.72;101461.06;2082694;28;47721;-47
2021/10/22 02:04:33;;;;;;;;;15.25;14.50;;;;;12.13;58.71;101475.25;2081133;28;48324;-50
2021/10/22 02:05:34;;;;;;;;;21.00;18.50;;;;;12.12;58.85;101455.75;2082901;28;48335;-49
2021/10/22 02:06:34;;;;;;;;;19.25;18.00;;;;;12.12;58.70;101454.88;2091476;28;48327;-52
2021/10/22 02:07:35;;;;;;;;;14.25;14.00;;;;;12.13;58.51;101465.47;2087834;28;47397;-52
2021/10/22 02:08:36;;;;;;;;;16.20;15.80;;;;;12.12;58.51;101463.72;2092119;28;47380;-49
2021/10/22 02:09:37;;;;;;;;;12.75;12.75;;;;;12.12;58.57;101458.41;2091854;28;47212;-49
2021/10/22 02:10:37;;;;;;;;;15.25;15.25;;;;;12.12;58.44;101457.53;2083058;28;47655;-51
2021/10/22 02:11:38;;;;;;;;;12.25;12.25;;;;;12.13;58.40;101468.13;2082653;28;48180;-48
2021/10/22 02:12:38;;;;;;;;;13.00;13.00;;;;;12.12;58.64;101457.53;2092063;28;48168;-50
2021/10/22 02:13:39;;;;;;;;;13.75;13.75;;;;;12.13;58.64;101462.81;2082732;28;47614;-49
2021/10/22 02:14:39;;;;;;;;;16.75;15.00;;;;;12.12;58.55;101463.72;2083364;28;46241;-55
2021/10/22 02:15:40;;;;;;;;;17.25;15.00;;;;;12.12;58.71;101471.69;2091595;28;48289;-50
2021/10/22 02:16:41;;;;;;;;;21.00;19.75;;;;;12.13;58.66;101459.28;2092194;28;48154;-49
2021/10/22 02:17:42;;;;;;;;;17.20;15.80;;;;;12.12;58.74;101461.06;2088802;28;47427;-52
2021/10/22 02:18:42;;;;;;;;;14.25;13.50;;;;;12.13;58.76;101459.28;2089693;28;47303;-50
2021/10/22 02:19:43;;;;;;;;;15.75;15.75;;;;;12.12;58.61;101452.19;2091695;28;47322;-47
2021/10/22 02:20:43;;;;;;;;;14.25;14.25;;;;;12.11;58.78;101451.31;2083166;28;47404;-49
2021/10/22 02:21:43;;;;;;;;;12.00;11.75;;;;;12.11;58.64;101453.97;2082654;28;46425;-52
2021/10/22 02:22:44;;;;;;;;;14.75;13.50;;;;;12.11;58.82;101453.97;2085072;28;47660;-51
2021/10/22 02:23:45;;;;;;;;;10.25;9.50;;;;;12.11;58.78;101455.75;2079258;28;47476;-50
2021/10/22 02:24:45;;;;;;;;;11.50;11.50;;;;;12.11;58.77;101458.44;2077461;28;48379;-52
2021/10/22 02:25:46;;;;;;;;;12.50;12.50;;;;;12.11;58.97;101455.75;2093029;28;47379;-52
2021/10/22 02:26:46;;;;;;;;;13.50;11.50;;;;;12.10;58.73;101457.56;2092027;28;45172;-49
2021/10/22 02:27:47;;;;;;;;;9.50;8.00;;;;;12.10;58.74;101462.00;2091799;28;47136;-49
2021/10/22 02:28:47;;;;;;;;;11.00;11.00;;;;;12.10;59.00;101459.34;2082351;28;48346;-51
2021/10/22 02:29:48;;;;;;;;;13.00;13.00;;;;;12.09;58.83;101453.13;2085825;28;48331;-52
2021/10/22 02:30:48;;;;;;;;;12.00;12.00;;;;;12.10;58.91;101457.56;2081596;28;47214;-51
2021/10/22 02:31:49;;;;;;;;;12.50;12.50;;;;;12.08;58.92;101454.91;2079345;28;47183;-49
2021/10/22 02:32:49;;;;;;;;;8.75;8.00;;;;;12.10;58.96;101454.00;2091373;28;47121;-50
2021/10/22 02:33:50;;;;;;;;;11.00;11.00;;;;;12.08;58.79;101454.91;2082916;28;45366;-51
2021/10/22 02:34:51;;;;;;;;;11.75;10.75;;;;;12.08;59.13;101451.38;2086419;28;48357;-52
2021/10/22 02:35:51;;;;;;;;;12.00;12.00;;;;;12.07;59.08;101455.81;2082703;28;46064;-51
2021/10/22 02:36:52;;;;;;;;;12.25;10.50;;;;;12.08;59.18;101448.72;2088137;28;47593;-51
2021/10/22 02:37:53;;;;;;;;;11.00;10.75;;;;;12.08;59.20;101452.25;2091118;28;48357;-51
2021/10/22 02:38:53;;;;;;;;;12.25;12.25;;;;;12.08;59.07;101454.03;2083055;28;47522;-50
2021/10/22 02:39:53;;;;;;;;;12.00;10.50;;;;;12.08;58.98;101446.06;2074666;28;48038;-52
2021/10/22 02:40:54;;;;;;;;;12.25;9.25;;;;;12.07;59.13;101446.97;2083139;28;46989;-52
2021/10/22 02:41:54;;;;;;;;;11.00;11.00;;;;;12.06;59.06;101445.19;2091657;28;47417;-50
2021/10/22 02:42:55;;;;;;;;;11.75;11.75;;;;;12.06;59.22;101446.06;2091813;28;47132;-50
2021/10/22 02:43:55;;;;;;;;;12.25;10.75;;;;;12.06;58.91;101446.06;2091778;28;47935;-50
2021/10/22 02:44:56;;;;;;;;;11.00;11.00;;;;;12.06;59.13;101445.19;2091814;28;47302;-47
2021/10/22 02:45:56;;;;;;;;;10.00;9.00;;;;;12.06;59.00;101455.81;2089522;28;48204;-51
2021/10/22 02:46:57;;;;;;;;;9.50;9.25;;;;;12.05;59.05;101454.06;2088881;28;47455;-47
2021/10/22 02:47:58;;;;;;;;;11.50;11.50;;;;;12.05;59.14;101460.25;2087936;28;47355;-47
2021/10/22 02:48:58;;;;;;;;;10.75;9.75;;;;;12.04;59.03;101454.97;2074799;28;46272;-48
2021/10/22 02:49:59;;;;;;;;;12.25;12.25;;;;;12.03;59.33;101456.75;2081843;28;46222;-48
2021/10/22 02:50:59;;;;;;;;;11.50;11.50;;;;;12.03;59.12;101459.41;2082474;28;48034;-46
2021/10/22 02:52:00;;;;;;;;;12.00;10.75;;;;;12.04;59.36;101457.63;2090738;28;48437;-48
2021/10/22 02:53:02;;;;;;;;;11.75;11.75;;;;;12.04;59.18;101465.59;2086054;28;47065;-47
2021/10/22 02:54:02;;;;;;;;;11.40;10.00;;;;;12.03;59.33;101470.06;2074501;28;47094;-48
2021/10/22 02:55:04;;;;;;;;;10.50;10.50;;;;;12.02;59.12;101465.63;2076202;28;45375;-50
2021/10/22 02:56:05;;;;;;;;;9.50;9.50;;;;;12.03;59.21;101458.53;2084195;28;48105;-48
2021/10/22 02:57:06;;;;;;;;;12.25;10.25;;;;;12.03;59.26;101469.19;2083247;28;47066;-47
2021/10/22 02:58:08;;;;;;;;;9.25;9.25;;;;;12.02;59.24;101470.09;2083575;28;47161;-49
2021/10/22 02:59:08;;;;;;;;;9.25;9.25;;;;;12.02;59.26;101464.75;2083174;28;47401;-48
2021/10/22 03:00:11;;;;;;;;;9.75;9.50;;;;;12.03;59.18;101466.50;2074806;28;45309;-49
2021/10/22 03:01:11;;;;;;;;;11.40;10.20;;;;;12.03;59.21;101466.50;2075259;28;47445;-46
2021/10/22 03:02:12;;;;;;;;;8.00;8.00;;;;;12.02;59.50;101462.09;2085196;28;47462;-50
2021/10/22 03:03:12;;;;;;;;;12.50;12.00;;;;;12.02;59.44;101465.63;2086056;28;47139;-50
2021/10/22 03:04:13;;;;;;;;;10.75;10.75;;;;;12.02;59.33;101467.41;2090545;28;48119;-48
2021/10/22 03:05:14;;;;;;;;;2.67;2.00;;;;;12.01;59.50;101471.88;2091685;28;48120;-49
2021/10/22 03:06:14;;;;;;;;;11.00;11.00;;;;;12.02;59.34;101465.63;2083302;28;48214;-50
2021/10/22 03:07:15;;;;;;;;;9.00;7.00;;;;;12.02;59.44;101468.28;2086729;28;47104;-50
2021/10/22 03:08:15;;;;;;;;;10.50;10.50;;;;;12.02;59.25;101462.97;2082745;28;47170;-47
2021/10/22 03:09:16;;;;;;;;;8.33;8.33;;;;;12.03;59.33;101466.50;2076050;28;45268;-49
2021/10/22 03:10:16;;;;;;;;;8.00;8.00;;;;;12.02;59.23;101462.09;2088463;28;47742;-48
2021/10/22 03:11:17;;;;;;;;;9.75;9.75;;;;;12.02;59.20;101470.97;2086712;28;47110;-47
2021/10/22 03:12:17;;;;;;;;;7.50;7.50;;;;;12.02;59.35;101467.41;2089587;28;48013;-51
2021/10/22 03:13:18;;;;;;;;;10.00;8.00;;;;;12.00;59.34;101456.81;2091365;28;47950;-46
2021/10/22 03:14:18;;;;;;;;;7.33;7.33;;;;;12.01;59.36;101466.53;2086164;28;47108;-49
2021/10/22 03:15:19;;;;;;;;;7.00;7.00;;;;;12.01;59.36;101463.00;2088373;28;45799;-46
2021/10/22 03:16:20;;;;;;;;;8.20;8.20;;;;;12.01;59.36;101458.56;2084082;28;47323;-46
2021/10/22 03:17:20;;;;;;;;;9.25;7.75;;;;;12.00;59.46;101464.78;2079105;28;47056;-49
2021/10/22 03:18:20;;;;;;;;;8.50;8.50;;;;;12.00;59.22;101459.47;2072280;28;48611;-49
2021/10/22 03:19:21;;;;;;;;;10.75;9.25;;;;;12.00;59.25;101463.91;2082472;28;47168;-47
2021/10/22 03:20:22;;;;;;;;;8.75;8.25;;;;;11.99;59.48;101463.03;2091574;28;47383;-47
2021/10/22 03:21:23;;;;;;;;;8.67;8.67;;;;;11.99;59.44;101467.47;2091269;28;47148;-51
2021/10/22 03:22:23;;;;;;;;;10.50;10.50;;;;;11.98;59.59;101463.94;2090665;28;47302;-49
2021/10/22 03:23:24;;;;;;;;;10.00;10.00;;;;;11.97;59.55;101467.50;2082496;28;48285;-48
2021/10/22 03:24:24;;;;;;;;;13.25;10.00;;;;;11.99;59.53;101464.81;2082525;28;48368;-50
2021/10/22 03:25:25;;;;;;;;;9.00;9.00;;;;;11.99;59.34;101464.81;2084061;28;47236;-50
2021/10/22 03:26:25;;;;;;;;;10.67;10.67;;;;;12.00;59.57;101463.91;2088209;28;48287;-46
2021/10/22 03:27:26;;;;;;;;;7.33;7.33;;;;;11.98;59.15;101469.25;2091554;28;47331;-49
2021/10/22 03:28:27;;;;;;;;;9.00;9.00;;;;;11.98;59.48;101471.91;2091628;28;47444;-48
2021/10/22 03:29:27;;;;;;;;;8.50;8.50;;;;;11.98;59.44;101468.38;2091352;28;48322;-46
2021/10/22 03:30:28;;;;;;;;;9.00;8.00;;;;;12.00;59.05;101477.22;2091716;28;46319;-50
2021/10/22 03:31:29;;;;;;;;;8.67;7.00;;;;;11.98;59.12;101471.91;2082560;28;47683;-46
2021/10/22 03:32:33;;;;;;;;;8.00;8.00;;;;;11.98;59.14;101466.59;2082864;28;48088;-48
2021/10/22 03:33:33;;;;;;;;;7.50;7.50;;;;;11.98;59.14;101465.72;2076482;28;47490;-49
2021/10/22 03:34:34;;;;;;;;;8.00;8.00;;;;;11.98;59.24;101466.59;2080568;28;48263;-48
2021/10/22 03:35:35;;;;;;;;;9.00;8.00;;;;;11.97;59.10;101467.50;2091284;28;47622;-48
2021/10/22 03:36:37;;;;;;;;;5.00;5.00;;;;;11.97;59.31;101464.84;2088097;28;48411;-47
2021/10/22 03:37:38;;;;;;;;;9.50;9.00;;;;;11.98;59.30;101466.59;2081461;28;46378;-50
2021/10/22 03:38:38;;;;;;;;;8.00;8.00;;;;;11.98;59.20;101474.56;2079688;28;48176;-49
2021/10/22 03:39:40;;;;;;;;;9.33;9.33;;;;;11.97;59.42;101466.63;2077745;28;47254;-49
2021/10/22 03:40:40;;;;;;;;;9.25;9.25;;;;;11.97;59.25;101472.81;2078946;28;47847;-47
2021/10/22 03:41:41;;;;;;;;;7.67;7.67;;;;;11.96;59.10;101468.41;2082128;28;46839;-47
2021/10/22 03:42:43;;;;;;;;;6.00;4.00;;;;;11.97;59.15;101471.94;2082366;28;47089;-50
2021/10/22 03:43:44;;;;;;;;;6.75;6.50;;;;;11.96;58.99;101468.41;2086407;28;47495;-47
2021/10/22 03:44:44;;;;;;;;;6.75;6.75;;;;;11.95;58.85;101471.97;2088034;28;47296;-49
2021/10/22 03:45:45;;;;;;;;;5.00;5.00;;;;;11.95;59.03;101468.44;2087115;28;47361;-49
2021/10/22 03:46:45;;;;;;;;;7.00;7.00;;;;;11.96;58.81;101473.72;2089056;28;48153;-47
2021/10/22 03:47:46;;;;;;;;;8.00;7.67;;;;;11.96;58.94;101475.50;2081388;28;47138;-49
2021/10/22 03:48:47;;;;;;;;;4.75;4.75;;;;;11.96;58.98;101470.19;2081174;28;48655;-47
2021/10/22 03:49:48;;;;;;;;;3.00;3.00;;;;;11.95;58.89;101469.31;2084457;28;48204;-47
2021/10/22 03:50:48;;;;;;;;;6.00;6.00;;;;;11.94;58.71;101470.22;2086182;28;47484;-48
2021/10/22 03:51:49;;;;;;;;;5.33;5.33;;;;;11.94;58.74;101470.22;2068637;28;47035;-46
2021/10/22 03:52:49;;;;;;;;;4.67;4.67;;;;;11.93;58.65;101465.78;2069612;28;47989;-47
2021/10/22 03:53:50;;;;;;;;;4.00;4.00;;;;;11.93;58.67;101473.75;2079686;28;48343;-46
2021/10/22 03:54:51;;;;;;;;;6.00;6.00;;;;;11.93;58.67;101468.44;2079284;28;48135;-48
2021/10/22 03:55:51;;;;;;;;;4.00;4.00;;;;;11.93;58.74;101472.88;2077010;28;47298;-48
2021/10/22 03:56:51;;;;;;;;;4.67;4.67;;;;;11.93;58.57;101470.22;2078054;28;47179;-45
2021/10/22 03:57:52;;;;;;;;;5.00;5.00;;;;;11.92;58.58;101476.44;2085622;28;47156;-49
2021/10/22 03:58:52;;;;;;;;;5.00;5.00;;;;;11.92;58.66;101473.78;2087687;28;46981;-46
2021/10/22 03:59:53;;;;;;;;;4.33;4.00;;;;;11.92;58.44;101474.66;2087182;28;47178;-47
2021/10/22 04:00:53;;;;;;;;;4.33;3.33;;;;;11.91;58.46;101474.69;2087523;28;47918;-47
2021/10/22 04:01:54;;;;;;;;;6.00;5.00;;;;;11.91;58.44;101474.69;2086225;28;47533;-47
2021/10/22 04:02:54;;;;;;;;;7.00;7.00;;;;;11.90;58.38;101481.78;2086883;28;46133;-46
2021/10/22 04:03:55;;;;;;;;;5.33;4.67;;;;;11.90;58.45;101470.28;2078792;28;47929;-46
2021/10/22 04:04:56;;;;;;;;;5.00;5.00;;;;;11.89;58.31;101474.72;2080793;28;47248;-47
2021/10/22 04:05:57;;;;;;;;;5.00;4.00;;;;;11.89;58.28;101480.03;2088610;28;46110;-45
2021/10/22 04:07:00;;;;;;;;;4.00;4.00;;;;;11.88;58.25;101480.06;2091274;28;45130;-45
2021/10/22 04:08:00;;;;;;;;;4.25;4.25;;;;;11.88;58.37;101469.41;2091174;28;47461;-45
2021/10/22 04:09:00;;;;;;;;;3.67;3.67;;;;;11.88;58.31;101472.06;2089525;28;48029;-45
2021/10/22 04:10:04;;;;;;;;;7.00;5.67;;;;;11.87;58.25;101480.97;2082224;28;47820;-45
2021/10/22 04:11:05;;;;;;;;;2.75;2.75;;;;;11.87;58.32;101487.16;2082773;28;47296;-49
2021/10/22 04:12:06;;;;;;;;;5.00;5.00;;;;;11.86;58.15;101484.53;2086513;28;47440;-53
2021/10/22 04:13:07;;;;;;;;;4.67;4.67;;;;;11.86;58.35;101479.22;2085837;28;48183;-47
2021/10/22 04:14:07;;;;;;;;;6.00;5.00;;;;;11.86;58.26;101484.53;2085595;28;47378;-46
2021/10/22 04:15:08;;;;;;;;;2.00;2.00;;;;;11.84;58.14;101487.22;2077893;28;48097;-46
2021/10/22 04:16:08;;;;;;;;;6.00;6.00;;;;;11.84;58.26;101479.22;2076517;28;47374;-45
2021/10/22 04:17:09;;;;;;;;;3.67;3.67;;;;;11.84;58.37;101478.34;2077769;28;48171;-44
2021/10/22 04:18:11;;;;;;;;;4.33;4.33;;;;;11.83;58.19;101474.81;2086511;28;47448;-48
2021/10/22 04:19:11;;;;;;;;;3.75;3.75;;;;;11.83;58.05;101477.47;2086693;28;45777;-45
2021/10/22 04:20:12;;;;;;;;;4.33;4.33;;;;;11.84;58.32;101479.22;2087389;28;48554;-47
2021/10/22 04:21:12;;;;;;;;;4.33;3.00;;;;;11.83;58.24;101485.47;2086211;28;46342;-48
2021/10/22 04:22:13;;;;;;;;;2.00;2.00;;;;;11.83;58.27;101480.13;2086796;28;47458;-47
2021/10/22 04:23:14;;;;;;;;;4.50;4.00;;;;;11.82;57.99;101483.69;2076939;28;47421;-47
2021/10/22 04:24:15;;;;;;;;;5.00;3.67;;;;;11.81;58.27;101487.22;2081343;28;47404;-44
2021/10/22 04:25:15;;;;;;;;;4.00;4.00;;;;;11.82;58.10;101485.47;2081442;28;48142;-44
2021/10/22 04:26:16;;;;;;;;;2.00;2.00;;;;;11.83;58.11;101484.56;2082513;28;47302;-50
2021/10/22 04:27:16;;;;;;;;;3.00;3.00;;;;;11.82;57.99;101486.34;2091143;28;46086;-48
2021/10/22 04:28:17;;;;;;;;;3.00;3.00;;;;;11.82;57.99;101474.84;2091474;28;48262;-49
2021/10/22 04:29:17;;;;;;;;;2.67;2.67;;;;;11.79;57.83;101479.28;2090380;28;47553;-46
2021/10/22 04:30:18;;;;;;;;;3.00;3.00;;;;;11.80;58.03;101485.47;2091451;28;47868;-49
2021/10/22 04:31:18;;;;;;;;;3.67;3.67;;;;;11.79;57.88;101484.59;2090916;28;48066;-48
2021/10/22 04:32:18;;;;;;;;;3.00;3.00;;;;;11.79;57.94;101481.06;2091364;28;47535;-47
2021/10/22 04:33:19;;;;;;;;;2.00;2.00;;;;;11.79;57.74;101476.63;2089107;28;47099;-48
2021/10/22 04:34:19;;;;;;;;;3.00;3.00;;;;;11.78;57.62;101477.50;2083620;28;48199;-49
2021/10/22 04:35:20;;;;;;;;;2.00;2.00;;;;;11.78;57.64;101488.13;2079153;28;45094;-48
2021/10/22 04:36:20;;;;;;;;;2.00;2.00;;;;;11.78;57.97;101495.22;2082210;28;47194;-50
2021/10/22 04:37:34;;;;;;;;;4.67;3.00;;;;;11.77;57.95;101489.03;2089594;28;45989;-46
2021/10/22 04:41:13;;;;;;;;;2.00;2.00;;;;;11.75;57.78;101493.50;2087548;28;47506;-45